Time;durP1;ratioP1;P1;durP2;ratioP2;P2;SDS_P1;SDS_P2;PMS_P1;PMS_P2;Temp;Humidity;BMP_temperature;BMP_pressure;BME280_temperature;BME280_humidity;BME280_pressure;Samples;Min_cycle;Max_cycle;Signal;HPM_P1;HPM_P2
2022/03/29 00:02:07;;;;;;;9.90;4.97;;;;;;;;;;1779019;81;21112;-71
2022/03/29 00:04:34;;;;;;;6.65;4.10;;;;;;;;;;1778557;81;21080;-71
2022/03/29 00:07:00;;;;;;;9.18;4.45;;;;;;;;;;1779123;81;20977;-71
2022/03/29 00:09:26;;;;;;;9.20;5.42;;;;;;;;;;1778813;81;21493;-71
2022/03/29 00:11:55;;;;;;;9.13;4.72;;;;;;;;;;1778859;81;21572;-71
2022/03/29 00:14:22;;;;;;;7.42;3.90;;;;;;;;;;1778776;81;21600;-71
2022/03/29 00:16:48;;;;;;;7.97;4.92;;;;;;;;;;1779068;81;21068;-71
2022/03/29 00:19:14;;;;;;;10.93;5.05;;;;;;;;;;1784654;80;21054;-70
2022/03/29 00:21:40;;;;;;;8.35;4.80;;;;;;;;;;1787633;80;21036;-70
2022/03/29 00:24:08;;;;;;;9.25;5.12;;;;;;;;;;1787444;80;21045;-70
2022/03/29 00:26:36;;;;;;;9.50;4.90;;;;;;;;;;1787360;80;21504;-71
2022/03/29 00:29:04;;;;;;;10.32;5.62;;;;;;;;;;1787565;80;21072;-70
2022/03/29 00:31:30;;;;;;;7.67;5.00;;;;;;;;;;1787308;80;21025;-71
2022/03/29 00:33:58;;;;;;;10.88;4.97;;;;;;;;;;1787357;80;21559;-71
2022/03/29 00:36:24;;;;;;;9.38;4.75;;;;;;;;;;1787134;80;21068;-69
2022/03/29 00:38:50;;;;;;;9.73;5.10;;;;;;;;;;1787323;80;20997;-70
2022/03/29 00:41:17;;;;;;;10.60;6.45;;;;;;;;;;1787375;80;21524;-70
2022/03/29 00:43:45;;;;;;;9.80;5.40;;;;;;;;;;1787675;80;21151;-70
2022/03/29 00:46:11;;;;;;;10.18;5.92;;;;;;;;;;1787315;80;21044;-70
2022/03/29 00:48:38;;;;;;;10.70;5.97;;;;;;;;;;1787197;80;21060;-70
2022/03/29 00:51:05;;;;;;;9.68;5.62;;;;;;;;;;1787204;80;21045;-70
2022/03/29 00:53:31;;;;;;;9.35;5.83;;;;;;;;;;1787339;80;21033;-70
2022/03/29 00:55:59;;;;;;;11.63;6.15;;;;;;;;;;1787261;80;21021;-70
2022/03/29 00:58:26;;;;;;;9.70;5.58;;;;;;;;;;1787561;80;21087;-70
2022/03/29 01:03:41;;;;;;;10.25;5.67;;;;;;;;;;1721379;79;21108;-70
2022/03/29 01:06:08;;;;;;;12.53;5.60;;;;;;;;;;1787728;80;21032;-71
2022/03/29 01:08:35;;;;;;;12.78;6.50;;;;;;;;;;1787917;80;21028;-71
2022/03/29 01:11:02;;;;;;;10.10;5.70;;;;;;;;;;1788143;80;21048;-71
2022/03/29 01:13:29;;;;;;;9.15;5.53;;;;;;;;;;1787700;80;21021;-71
2022/03/29 01:15:55;;;;;;;12.25;6.50;;;;;;;;;;1788132;80;21040;-70
2022/03/29 01:18:26;;;;;;;10.98;6.28;;;;;;;;;;1787526;80;21096;-70
2022/03/29 01:20:51;;;;;;;10.08;6.47;;;;;;;;;;1787688;80;21017;-70
2022/03/29 01:23:17;;;;;;;10.72;5.72;;;;;;;;;;1763634;80;21067;-70
2022/03/29 01:25:45;;;;;;;10.70;6.65;;;;;;;;;;1787980;80;21096;-71
2022/03/29 01:28:11;;;;;;;9.65;5.97;;;;;;;;;;1787983;80;21063;-71
2022/03/29 01:30:38;;;;;;;15.60;6.35;;;;;;;;;;1787957;80;21021;-70
2022/03/29 01:33:04;;;;;;;12.50;6.53;;;;;;;;;;1787794;80;21052;-71
2022/03/29 01:35:31;;;;;;;9.65;5.67;;;;;;;;;;1787885;80;21028;-70
2022/03/29 01:37:57;;;;;;;9.93;5.92;;;;;;;;;;1787664;80;21516;-70
2022/03/29 01:40:24;;;;;;;12.68;5.60;;;;;;;;;;1787990;80;21484;-70
2022/03/29 01:42:51;;;;;;;11.35;6.37;;;;;;;;;;1787734;80;21032;-70
2022/03/29 01:45:18;;;;;;;13.15;6.95;;;;;;;;;;1787928;80;21111;-70
2022/03/29 01:47:44;;;;;;;14.90;6.58;;;;;;;;;;1787631;80;21084;-70
2022/03/29 01:50:12;;;;;;;13.65;6.67;;;;;;;;;;1787791;80;21060;-70
2022/03/29 01:52:40;;;;;;;14.20;7.22;;;;;;;;;;1787383;80;21139;-70
2022/03/29 01:55:08;;;;;;;12.50;6.55;;;;;;;;;;1787583;80;21107;-70
2022/03/29 01:57:34;;;;;;;11.33;7.00;;;;;;;;;;1787853;80;21527;-70
2022/03/29 02:02:45;;;;;;;13.15;7.22;;;;;;;;;;1787717;80;21103;-70
2022/03/29 02:05:11;;;;;;;14.23;6.60;;;;;;;;;;1794580;80;21134;-70
2022/03/29 02:07:39;;;;;;;11.38;6.95;;;;;;;;;;1795451;80;21036;-70
2022/03/29 02:10:07;;;;;;;10.50;5.55;;;;;;;;;;1795221;80;21060;-70
2022/03/29 02:12:33;;;;;;;17.10;8.03;;;;;;;;;;1795522;80;20988;-70
2022/03/29 02:15:01;;;;;;;10.43;5.75;;;;;;;;;;1795188;80;21616;-70
2022/03/29 02:17:28;;;;;;;11.25;6.33;;;;;;;;;;1795378;80;22086;-69
2022/03/29 02:19:54;;;;;;;15.80;7.72;;;;;;;;;;1795254;80;21067;-70
2022/03/29 02:22:20;;;;;;;12.50;7.53;;;;;;;;;;1795645;80;21063;-71
2022/03/29 02:24:47;;;;;;;13.00;8.13;;;;;;;;;;1795252;80;21068;-70
2022/03/29 02:27:13;;;;;;;10.48;6.45;;;;;;;;;;1795671;80;21032;-70
2022/03/29 02:29:40;;;;;;;13.40;7.25;;;;;;;;;;1795242;80;21543;-71
2022/03/29 02:32:07;;;;;;;13.65;7.60;;;;;;;;;;1795450;80;21578;-70
2022/03/29 02:34:33;;;;;;;14.35;7.30;;;;;;;;;;1795434;80;21024;-71
2022/03/29 02:36:59;;;;;;;12.20;6.67;;;;;;;;;;1795421;80;21055;-70
2022/03/29 02:39:25;;;;;;;13.72;8.15;;;;;;;;;;1795518;80;21123;-71
2022/03/29 02:41:52;;;;;;;15.83;8.78;;;;;;;;;;1795289;80;21099;-71
2022/03/29 02:44:18;;;;;;;13.80;7.80;;;;;;;;;;1795653;80;21102;-71
2022/03/29 02:46:45;;;;;;;11.75;8.23;;;;;;;;;;1795272;80;20989;-71
2022/03/29 02:49:11;;;;;;;12.00;6.75;;;;;;;;;;1795497;80;21110;-71
2022/03/29 02:51:38;;;;;;;15.25;8.10;;;;;;;;;;1795325;80;21001;-71
2022/03/29 02:54:05;;;;;;;12.03;8.00;;;;;;;;;;1795575;80;21614;-70
2022/03/29 02:56:31;;;;;;;14.18;7.15;;;;;;;;;;1795310;80;21012;-70
2022/03/29 02:58:57;;;;;;;12.63;7.28;;;;;;;;;;1795448;80;21036;-70
2022/03/29 03:01:28;;;;;;;14.45;8.30;;;;;;;;;;1795232;80;21060;-70
2022/03/29 03:03:53;;;;;;;14.18;7.50;;;;;;;;;;1793965;80;21198;-70
2022/03/29 03:06:19;;;;;;;11.75;7.37;;;;;;;;;;1788423;80;21028;-70
2022/03/29 03:08:46;;;;;;;13.85;8.35;;;;;;;;;;1788476;80;21119;-70
2022/03/29 03:11:13;;;;;;;11.63;6.50;;;;;;;;;;1788666;80;21060;-72
2022/03/29 03:13:41;;;;;;;11.05;6.67;;;;;;;;;;1788224;80;21041;-71
2022/03/29 03:16:08;;;;;;;15.32;9.45;;;;;;;;;;1788570;80;21052;-70
2022/03/29 03:18:36;;;;;;;12.75;7.45;;;;;;;;;;1788421;80;21024;-71
2022/03/29 03:21:03;;;;;;;14.68;7.28;;;;;;;;;;1788631;80;21512;-70
2022/03/29 03:23:29;;;;;;;17.30;8.50;;;;;;;;;;1788243;80;21020;-70
2022/03/29 03:25:55;;;;;;;12.98;7.42;;;;;;;;;;1788539;80;21587;-70
2022/03/29 03:28:22;;;;;;;16.05;9.23;;;;;;;;;;1788264;80;21092;-70
2022/03/29 03:30:51;;;;;;;14.15;8.90;;;;;;;;;;1788420;80;21492;-70
2022/03/29 03:33:18;;;;;;;15.45;8.45;;;;;;;;;;1788312;80;21103;-71
2022/03/29 03:35:46;;;;;;;16.73;9.25;;;;;;;;;;1788404;80;21060;-70
2022/03/29 03:38:12;;;;;;;15.70;10.30;;;;;;;;;;1788422;80;21033;-70
2022/03/29 03:40:41;;;;;;;13.50;7.67;;;;;;;;;;1788283;80;21092;-70
2022/03/29 03:43:07;;;;;;;15.08;8.83;;;;;;;;;;1788654;80;21520;-70
2022/03/29 03:45:33;;;;;;;14.55;7.72;;;;;;;;;;1788489;80;21574;-70
2022/03/29 03:47:59;;;;;;;14.13;8.18;;;;;;;;;;1788620;80;21492;-70
2022/03/29 04:03:28;;;;;;;17.32;9.13;;;;;;;;;;1801992;79;22869;-70
2022/03/29 04:05:55;;;;;;;16.85;9.20;;;;;;;;;;1761885;81;21001;-69
2022/03/29 04:08:21;;;;;;;14.70;8.20;;;;;;;;;;1761716;81;21028;-69
2022/03/29 04:10:48;;;;;;;13.58;9.13;;;;;;;;;;1761598;81;21103;-69
2022/03/29 04:13:15;;;;;;;18.07;9.93;;;;;;;;;;1761948;81;21041;-69
2022/03/29 04:15:43;;;;;;;13.48;9.10;;;;;;;;;;1761653;81;21089;-69
2022/03/29 04:18:09;;;;;;;14.75;7.95;;;;;;;;;;1761925;81;21504;-69
2022/03/29 04:20:40;;;;;;;15.25;9.40;;;;;;;;;;1761608;81;21103;-69
2022/03/29 04:23:08;;;;;;;12.98;9.18;;;;;;;;;;1761825;81;21041;-69
2022/03/29 04:25:34;;;;;;;12.45;8.08;;;;;;;;;;1761678;81;21053;-69
2022/03/29 04:28:01;;;;;;;11.97;8.38;;;;;;;;;;1761550;81;21135;-68
2022/03/29 04:30:27;;;;;;;15.90;9.33;;;;;;;;;;1761944;81;21607;-69
2022/03/29 04:32:54;;;;;;;13.65;9.60;;;;;;;;;;1761671;81;21111;-69
2022/03/29 04:35:20;;;;;;;13.72;8.83;;;;;;;;;;1761925;81;21587;-69
2022/03/29 04:37:47;;;;;;;15.68;8.05;;;;;;;;;;1761867;81;21049;-69
2022/03/29 04:40:14;;;;;;;15.25;9.30;;;;;;;;;;1761951;81;21028;-69
2022/03/29 04:42:42;;;;;;;13.40;9.23;;;;;;;;;;1761671;81;21010;-69
2022/03/29 04:45:09;;;;;;;14.80;8.75;;;;;;;;;;1761963;81;21516;-69
2022/03/29 04:47:37;;;;;;;10.70;7.20;;;;;;;;;;1742905;81;21033;-69
2022/03/29 04:50:04;;;;;;;13.38;8.50;;;;;;;;;;1761760;81;21073;-69
2022/03/29 04:52:30;;;;;;;10.90;6.58;;;;;;;;;;1759433;81;21029;-68
2022/03/29 04:54:57;;;;;;;14.73;9.10;;;;;;;;;;1729961;83;21041;-68
2022/03/29 04:57:23;;;;;;;15.05;9.00;;;;;;;;;;1730183;83;21049;-69
2022/03/29 04:59:49;;;;;;;12.93;9.13;;;;;;;;;;1729987;82;21092;-69
2022/03/29 05:02:17;;;;;;;12.28;9.10;;;;;;;;;;1729947;82;21048;-69
2022/03/29 05:04:44;;;;;;;13.35;7.78;;;;;;;;;;1730290;82;21460;-69
2022/03/29 05:07:12;;;;;;;14.90;8.85;;;;;;;;;;1730261;83;21067;-69
2022/03/29 05:09:39;;;;;;;13.50;8.50;;;;;;;;;;1730190;82;21104;-70
2022/03/29 05:12:07;;;;;;;14.20;8.65;;;;;;;;;;1730227;82;21120;-69
2022/03/29 05:14:34;;;;;;;13.43;8.73;;;;;;;;;;1729675;83;21080;-69
2022/03/29 05:17:01;;;;;;;12.53;8.65;;;;;;;;;;1729855;82;21516;-69
2022/03/29 05:19:29;;;;;;;11.85;7.25;;;;;;;;;;1729609;82;21072;-69
2022/03/29 05:21:55;;;;;;;12.05;8.75;;;;;;;;;;1729865;82;21048;-69
2022/03/29 05:24:23;;;;;;;13.10;9.10;;;;;;;;;;1729582;82;21089;-70
2022/03/29 05:26:50;;;;;;;10.88;7.25;;;;;;;;;;1730138;82;21028;-69
2022/03/29 05:29:18;;;;;;;12.73;8.48;;;;;;;;;;1729621;82;21072;-68
2022/03/29 05:31:45;;;;;;;12.95;9.40;;;;;;;;;;1730079;82;21128;-69
2022/03/29 05:34:13;;;;;;;10.20;6.97;;;;;;;;;;1729747;83;21064;-69
2022/03/29 05:36:44;;;;;;;13.93;9.23;;;;;;;;;;1730051;83;21044;-70
2022/03/29 05:39:08;;;;;;;13.55;9.50;;;;;;;;;;1729366;82;21073;-70
2022/03/29 05:41:35;;;;;;;13.80;8.08;;;;;;;;;;1730003;82;21060;-71
2022/03/29 05:44:01;;;;;;;15.23;9.28;;;;;;;;;;1729450;83;21109;-69
2022/03/29 05:49:11;;;;;;;11.50;7.25;;;;;;;;;;1729890;82;21017;-69
2022/03/29 05:51:38;;;;;;;13.95;9.00;;;;;;;;;;1729658;82;21136;-70
2022/03/29 05:54:06;;;;;;;14.65;8.68;;;;;;;;;;1729760;81;21089;-69
2022/03/29 05:56:33;;;;;;;13.88;9.55;;;;;;;;;;1729579;83;21037;-69
2022/03/29 05:59:00;;;;;;;12.15;7.47;;;;;;;;;;1729818;83;21057;-69
2022/03/29 06:01:26;;;;;;;12.43;8.78;;;;;;;;;;1729684;83;21112;-69
2022/03/29 06:03:52;;;;;;;12.98;9.40;;;;;;;;;;1717327;83;21089;-69
2022/03/29 06:06:19;;;;;;;15.38;8.48;;;;;;;;;;1716832;83;21069;-70
2022/03/29 06:08:46;;;;;;;14.45;9.35;;;;;;;;;;1716972;83;21064;-69
2022/03/29 06:11:14;;;;;;;13.53;9.50;;;;;;;;;;1716824;83;21054;-69
2022/03/29 06:13:40;;;;;;;11.57;7.90;;;;;;;;;;1717198;83;21128;-69
2022/03/29 06:16:06;;;;;;;12.60;8.45;;;;;;;;;;1716644;83;21110;-69
2022/03/29 06:18:33;;;;;;;12.93;8.55;;;;;;;;;;1716899;83;21053;-68
2022/03/29 06:20:59;;;;;;;11.95;8.63;;;;;;;;;;1716727;83;21054;-69
2022/03/29 06:23:25;;;;;;;12.15;6.87;;;;;;;;;;1716486;83;21057;-69
2022/03/29 06:25:54;;;;;;;12.93;9.10;;;;;;;;;;1716866;83;21032;-68
2022/03/29 06:28:20;;;;;;;14.43;8.60;;;;;;;;;;1716651;83;21057;-69
2022/03/29 06:30:47;;;;;;;15.40;9.53;;;;;;;;;;1716846;83;21088;-69
2022/03/29 06:33:13;;;;;;;14.85;8.20;;;;;;;;;;1716677;83;21077;-69
2022/03/29 06:35:41;;;;;;;14.38;8.80;;;;;;;;;;1716607;83;21129;-69
2022/03/29 06:38:08;;;;;;;13.38;8.28;;;;;;;;;;1716536;83;21147;-69
2022/03/29 06:40:34;;;;;;;14.95;9.03;;;;;;;;;;1716835;83;21061;-69
2022/03/29 06:43:02;;;;;;;12.13;6.70;;;;;;;;;;1716755;83;21073;-68
2022/03/29 06:45:28;;;;;;;13.00;8.25;;;;;;;;;;1716533;83;21076;-69
2022/03/29 06:47:58;;;;;;;16.37;8.73;;;;;;;;;;1716873;83;21116;-69
2022/03/29 06:50:25;;;;;;;12.80;8.40;;;;;;;;;;1716782;83;21049;-69
2022/03/29 06:52:51;;;;;;;13.20;8.03;;;;;;;;;;1716807;82;21132;-69
2022/03/29 06:55:19;;;;;;;12.33;6.95;;;;;;;;;;1716574;83;21077;-69
2022/03/29 06:57:47;;;;;;;11.88;7.53;;;;;;;;;;1717003;83;21034;-69
2022/03/29 07:00:15;;;;;;;11.97;7.90;;;;;;;;;;1716645;83;21041;-69
2022/03/29 07:02:42;;;;;;;11.50;6.53;;;;;;;;;;1716819;83;21077;-69
2022/03/29 07:05:11;;;;;;;11.45;7.70;;;;;;;;;;1716808;83;20992;-70
2022/03/29 07:07:41;;;;;;;11.63;7.83;;;;;;;;;;1716949;83;21057;-70
2022/03/29 07:12:55;;;;;;;11.25;7.95;;;;;;;;;;1716895;83;21128;-70
2022/03/29 07:15:22;;;;;;;11.50;7.60;;;;;;;;;;1716826;83;21092;-70
2022/03/29 07:17:50;;;;;;;10.15;6.70;;;;;;;;;;1717196;83;21001;-70
2022/03/29 07:20:21;;;;;;;12.28;6.90;;;;;;;;;;1716541;83;21064;-70
2022/03/29 07:22:50;;;;;;;9.83;6.80;;;;;;;;;;1717008;83;21131;-69
2022/03/29 07:25:23;;;;;;;10.20;7.33;;;;;;;;;;1716815;83;21080;-69
2022/03/29 07:27:46;;;;;;;12.53;7.50;;;;;;;;;;1716053;83;21034;-69
2022/03/29 07:30:14;;;;;;;9.33;5.83;;;;;;;;;;1716758;83;21513;-69
2022/03/29 07:32:45;;;;;;;11.10;6.72;;;;;;;;;;1716969;83;21025;-69
2022/03/29 07:35:12;;;;;;;10.70;6.17;;;;;;;;;;1716661;83;21521;-70
2022/03/29 07:37:40;;;;;;;10.58;6.60;;;;;;;;;;1716958;83;21485;-68
2022/03/29 07:40:09;;;;;;;8.95;6.28;;;;;;;;;;1716926;83;21017;-68
2022/03/29 07:42:36;;;;;;;10.55;6.37;;;;;;;;;;1716994;83;21133;-71
2022/03/29 07:45:06;;;;;;;8.63;6.62;;;;;;;;;;1716740;83;21057;-69
2022/03/29 07:47:34;;;;;;;11.63;6.75;;;;;;;;;;1716904;83;21556;-69
2022/03/29 07:50:06;;;;;;;12.75;6.50;;;;;;;;;;1716594;83;21025;-68
2022/03/29 07:52:34;;;;;;;9.63;5.30;;;;;;;;;;1716707;82;21147;-68
2022/03/29 07:55:02;;;;;;;7.85;4.80;;;;;;;;;;1716315;83;21054;-68
2022/03/29 07:57:29;;;;;;;7.60;4.58;;;;;;;;;;1716927;83;21025;-69
2022/03/29 07:59:58;;;;;;;7.53;5.40;;;;;;;;;;1716580;83;21073;-69
2022/03/29 08:02:26;;;;;;;7.53;4.42;;;;;;;;;;1718348;83;21312;-69
2022/03/29 08:04:53;;;;;;;6.80;4.12;;;;;;;;;;1729670;82;20990;-69
2022/03/29 08:07:21;;;;;;;7.92;4.92;;;;;;;;;;1729742;83;21028;-69
2022/03/29 08:09:49;;;;;;;8.13;4.62;;;;;;;;;;1729605;83;21575;-69
2022/03/29 08:12:16;;;;;;;9.03;4.85;;;;;;;;;;1729634;82;21052;-69
2022/03/29 08:14:46;;;;;;;7.58;4.40;;;;;;;;;;1729605;82;21006;-69
2022/03/29 08:17:13;;;;;;;8.98;4.78;;;;;;;;;;1729636;83;21582;-69
2022/03/29 08:19:42;;;;;;;9.65;5.28;;;;;;;;;;1729701;83;21052;-69
2022/03/29 08:22:09;;;;;;;7.80;4.67;;;;;;;;;;1729610;83;21040;-69
2022/03/29 08:24:38;;;;;;;8.70;5.95;;;;;;;;;;1729654;83;21017;-69
2022/03/29 08:27:05;;;;;;;10.45;4.85;;;;;;;;;;1729604;82;21044;-69
2022/03/29 08:29:34;;;;;;;7.37;4.58;;;;;;;;;;1729689;83;21488;-69
2022/03/29 08:32:01;;;;;;;11.12;5.30;;;;;;;;;;1729770;82;21587;-69
2022/03/29 08:34:29;;;;;;;7.25;5.22;;;;;;;;;;1729710;83;21076;-70
2022/03/29 08:36:56;;;;;;;9.80;5.12;;;;;;;;;;1729921;83;21512;-69
2022/03/29 08:39:23;;;;;;;7.37;4.85;;;;;;;;;;1729732;82;21532;-70
2022/03/29 08:41:52;;;;;;;16.05;5.53;;;;;;;;;;1729693;83;21052;-69
2022/03/29 08:44:19;;;;;;;7.70;4.85;;;;;;;;;;1729698;83;20997;-69
2022/03/29 08:46:48;;;;;;;12.37;5.10;;;;;;;;;;1729889;82;22160;-69
2022/03/29 08:49:16;;;;;;;7.95;5.28;;;;;;;;;;1729860;82;21041;-70
2022/03/29 08:51:45;;;;;;;9.05;4.83;;;;;;;;;;1729992;82;21013;-69
2022/03/29 08:54:13;;;;;;;7.87;4.67;;;;;;;;;;1729727;81;21060;-69
2022/03/29 08:56:41;;;;;;;9.53;4.97;;;;;;;;;;1729683;83;21088;-69
2022/03/29 08:59:09;;;;;;;8.18;4.72;;;;;;;;;;1729306;82;21100;-70
2022/03/29 09:01:37;;;;;;;7.08;4.40;;;;;;;;;;1729943;83;21531;-69
2022/03/29 09:04:11;;;;;;;7.58;4.80;;;;;;;;;;1729633;83;21092;-69
2022/03/29 09:06:54;;;;;;;9.55;4.80;;;;;;;;;;1729896;83;21508;-70
2022/03/29 09:09:22;;;;;;;8.48;5.22;;;;;;;;;;1729786;82;21064;-70
2022/03/29 09:11:50;;;;;;;10.95;5.90;;;;;;;;;;1729500;82;21061;-70
2022/03/29 09:14:18;;;;;;;6.83;4.75;;;;;;;;;;1729734;82;21564;-69
2022/03/29 09:16:47;;;;;;;9.70;5.42;;;;;;;;;;1729770;83;21084;-69
2022/03/29 09:19:17;;;;;;;8.05;4.97;;;;;;;;;;1729591;82;21001;-69
2022/03/29 09:21:44;;;;;;;5.75;4.28;;;;;;;;;;1729704;82;21500;-69
2022/03/29 09:24:17;;;;;;;9.00;5.83;;;;;;;;;;1729458;82;21060;-69
2022/03/29 09:26:44;;;;;;;6.90;4.65;;;;;;;;;;1729891;83;21013;-69
2022/03/29 09:29:13;;;;;;;7.35;4.30;;;;;;;;;;1729687;83;21048;-69
2022/03/29 09:31:41;;;;;;;8.68;5.17;;;;;;;;;;1729694;82;21099;-69
2022/03/29 09:34:11;;;;;;;7.70;4.95;;;;;;;;;;1729782;83;21017;-69
2022/03/29 09:36:43;;;;;;;8.20;4.70;;;;;;;;;;1729838;83;21060;-69
2022/03/29 09:39:12;;;;;;;9.15;5.05;;;;;;;;;;1729507;82;21028;-69
2022/03/29 09:41:40;;;;;;;9.28;4.53;;;;;;;;;;1727831;82;21056;-70
2022/03/29 09:44:09;;;;;;;6.80;4.28;;;;;;;;;;1728758;82;21021;-69
2022/03/29 09:46:39;;;;;;;7.10;4.37;;;;;;;;;;1729847;83;21573;-69
2022/03/29 09:49:06;;;;;;;5.97;4.35;;;;;;;;;;1726104;83;21492;-69
2022/03/29 09:51:33;;;;;;;6.17;3.80;;;;;;;;;;1729779;83;21528;-69
2022/03/29 09:54:02;;;;;;;8.80;4.20;;;;;;;;;;1729511;81;21318;-69
2022/03/29 09:56:30;;;;;;;7.33;4.17;;;;;;;;;;1729773;82;21079;-70
2022/03/29 09:59:08;;;;;;;9.03;4.20;;;;;;;;;;1729778;83;21048;-70
2022/03/29 10:01:47;;;;;;;7.05;4.45;;;;;;;;;;1729816;82;21043;-69
2022/03/29 10:04:16;;;;;;;7.40;4.03;;;;;;;;;;1705915;83;21077;-69
2022/03/29 10:06:43;;;;;;;6.25;4.12;;;;;;;;;;1724284;83;21033;-69
2022/03/29 10:09:27;;;;;;;8.20;4.25;;;;;;;;;;1724690;82;21013;-70
2022/03/29 10:11:57;;;;;;;8.30;4.70;;;;;;;;;;1724512;83;21009;-70
2022/03/29 10:14:25;;;;;;;8.30;5.28;;;;;;;;;;1724422;83;21095;-70
2022/03/29 10:16:54;;;;;;;9.20;5.00;;;;;;;;;;1724653;83;21072;-70
2022/03/29 10:19:22;;;;;;;7.20;4.92;;;;;;;;;;1724297;83;21081;-70
2022/03/29 10:21:50;;;;;;;8.50;4.95;;;;;;;;;;1724652;83;21572;-70
2022/03/29 10:24:18;;;;;;;6.65;4.37;;;;;;;;;;1724467;83;21034;-69
2022/03/29 10:26:47;;;;;;;6.78;4.42;;;;;;;;;;1724562;83;21009;-70
2022/03/29 10:29:15;;;;;;;9.35;4.95;;;;;;;;;;1724094;82;21081;-70
2022/03/29 10:31:43;;;;;;;9.28;4.65;;;;;;;;;;1724692;82;21032;-69
2022/03/29 10:34:12;;;;;;;7.58;5.35;;;;;;;;;;1720793;83;21650;-70
2022/03/29 10:36:59;;;;;;;8.30;5.22;;;;;;;;;;1724506;82;20989;-70
2022/03/29 10:39:43;;;;;;;6.85;4.67;;;;;;;;;;1724396;83;21002;-69
2022/03/29 10:42:28;;;;;;;9.50;5.15;;;;;;;;;;1695082;85;21029;-69
2022/03/29 10:44:57;;;;;;;8.55;4.90;;;;;;;;;;1718739;83;21088;-69
2022/03/29 10:47:25;;;;;;;8.75;5.25;;;;;;;;;;1723295;82;21075;-69
2022/03/29 10:49:54;;;;;;;9.58;5.45;;;;;;;;;;1724394;82;21045;-70
2022/03/29 10:52:23;;;;;;;8.00;4.78;;;;;;;;;;1724294;82;21081;-70
2022/03/29 10:54:50;;;;;;;8.60;5.10;;;;;;;;;;1724505;82;21044;-69
2022/03/29 10:57:19;;;;;;;7.30;4.65;;;;;;;;;;1724591;83;21201;-69
2022/03/29 10:59:58;;;;;;;9.00;5.87;;;;;;;;;;1724569;83;21512;-69
2022/03/29 11:02:23;;;;;;;8.20;5.20;;;;;;;;;;1724243;83;21060;-69
2022/03/29 11:05:08;;;;;;;7.22;5.22;;;;;;;;;;1728310;83;21488;-68
2022/03/29 11:07:38;;;;;;;7.25;5.47;;;;;;;;;;1729784;83;21040;-69
2022/03/29 11:10:13;;;;;;;7.25;5.58;;;;;;;;;;1727215;83;21516;-69
2022/03/29 11:12:48;;;;;;;7.80;5.47;;;;;;;;;;1729672;83;21538;-69
2022/03/29 11:15:32;;;;;;;33.75;9.50;;;;;;;;;;1729667;82;21020;-69
2022/03/29 11:17:56;;;;;;;32.70;15.38;;;;;;;;;;1729094;82;21049;-69
2022/03/29 11:20:27;;;;;;;22.40;15.68;;;;;;;;;;1729878;83;21033;-68
2022/03/29 11:22:54;;;;;;;26.02;18.70;;;;;;;;;;1729703;83;21076;-68
2022/03/29 11:25:22;;;;;;;25.05;18.80;;;;;;;;;;1729641;82;21009;-68
2022/03/29 11:27:51;;;;;;;23.77;14.35;;;;;;;;;;1729523;83;21607;-69
2022/03/29 11:30:18;;;;;;;16.57;11.22;;;;;;;;;;1729915;83;20985;-69
2022/03/29 11:32:46;;;;;;;17.35;10.80;;;;;;;;;;1729761;83;21540;-69
2022/03/29 11:35:14;;;;;;;21.95;12.40;;;;;;;;;;1729889;82;21063;-69
2022/03/29 11:37:43;;;;;;;20.97;12.45;;;;;;;;;;1729813;83;21088;-70
2022/03/29 11:40:11;;;;;;;20.20;12.05;;;;;;;;;;1729260;82;22108;-69
2022/03/29 11:42:50;;;;;;;21.82;13.45;;;;;;;;;;1729662;83;20985;-70
2022/03/29 11:45:17;;;;;;;21.00;12.05;;;;;;;;;;1729556;83;21049;-69
2022/03/29 11:47:58;;;;;;;20.50;11.12;;;;;;;;;;1729682;83;21029;-69
2022/03/29 11:50:32;;;;;;;18.73;10.55;;;;;;;;;;1729389;83;21139;-69
2022/03/29 11:52:59;;;;;;;20.60;11.50;;;;;;;;;;1729736;81;21084;-70
2022/03/29 11:55:27;;;;;;;18.37;10.63;;;;;;;;;;1729579;82;21079;-70
2022/03/29 11:57:55;;;;;;;18.40;10.88;;;;;;;;;;1729655;83;20985;-70
2022/03/29 12:00:23;;;;;;;19.57;9.65;;;;;;;;;;1729477;82;21088;-70
2022/03/29 12:02:50;;;;;;;19.40;10.70;;;;;;;;;;1729660;83;21057;-69
2022/03/29 12:05:22;;;;;;;16.25;9.48;;;;;;;;;;1729618;83;21493;-69
2022/03/29 12:07:57;;;;;;;17.65;10.08;;;;;;;;;;1729698;82;21076;-69
2022/03/29 12:10:31;;;;;;;15.40;9.88;;;;;;;;;;1729893;82;21532;-69
2022/03/29 12:12:58;;;;;;;14.07;8.35;;;;;;;;;;1729706;82;20993;-69
2022/03/29 12:15:26;;;;;;;16.57;8.60;;;;;;;;;;1729702;82;21623;-69
2022/03/29 12:18:40;;;;;;;15.08;7.50;;;;;;;;;;1729665;82;21107;-70
2022/03/29 12:20:33;;;;;;;12.63;8.08;;;;;;;;;;1727009;83;21033;-69
2022/03/29 12:23:01;;;;;;;12.07;7.80;;;;;;;;;;1729744;83;21028;-69
2022/03/29 12:25:32;;;;;;;13.55;8.10;;;;;;;;;;1729702;82;21060;-69
2022/03/29 12:27:59;;;;;;;13.30;8.45;;;;;;;;;;1729875;83;21516;-69
2022/03/29 12:30:27;;;;;;;12.73;7.95;;;;;;;;;;1729674;83;21040;-69
2022/03/29 12:32:54;;;;;;;15.63;8.95;;;;;;;;;;1729864;82;21504;-69
2022/03/29 12:35:22;;;;;;;12.15;8.38;;;;;;;;;;1729748;82;21045;-69
2022/03/29 12:37:49;;;;;;;15.25;8.68;;;;;;;;;;1729909;83;21016;-69
2022/03/29 12:40:17;;;;;;;14.25;7.62;;;;;;;;;;1713410;83;21607;-69
2022/03/29 12:42:45;;;;;;;14.55;8.05;;;;;;;;;;1729813;83;21056;-69
2022/03/29 12:45:13;;;;;;;15.18;9.08;;;;;;;;;;1729784;82;21616;-68
2022/03/29 12:47:41;;;;;;;15.50;10.80;;;;;;;;;;1729901;83;21480;-69
2022/03/29 12:50:09;;;;;;;15.60;8.95;;;;;;;;;;1729803;82;21021;-69
2022/03/29 12:52:40;;;;;;;18.92;9.70;;;;;;;;;;1729759;81;21531;-70
2022/03/29 12:55:07;;;;;;;12.90;8.30;;;;;;;;;;1729660;82;21560;-70
2022/03/29 12:57:38;;;;;;;16.37;9.10;;;;;;;;;;1729805;82;21049;-69
2022/03/29 13:00:09;;;;;;;16.23;8.90;;;;;;;;;;1729912;82;21556;-68
2022/03/29 13:02:35;;;;;;;13.32;8.35;;;;;;;;;;1729643;83;21618;-69
2022/03/29 13:05:03;;;;;;;14.63;9.10;;;;;;;;;;1721923;82;21712;-69
2022/03/29 13:07:51;;;;;;;11.38;7.55;;;;;;;;;;1717176;83;21021;-69
2022/03/29 13:10:24;;;;;;;12.93;9.05;;;;;;;;;;1716857;83;21037;-69
2022/03/29 13:12:52;;;;;;;13.08;7.80;;;;;;;;;;1716938;83;21081;-69
2022/03/29 13:15:36;;;;;;;11.10;7.37;;;;;;;;;;1716873;83;21069;-69
2022/03/29 13:18:05;;;;;;;13.20;8.45;;;;;;;;;;1716969;83;21069;-69
2022/03/29 13:20:39;;;;;;;11.18;7.33;;;;;;;;;;1716134;83;21074;-69
2022/03/29 13:23:07;;;;;;;8.85;6.00;;;;;;;;;;1716850;83;21053;-69
2022/03/29 13:25:35;;;;;;;11.45;7.12;;;;;;;;;;1716973;83;21045;-69
2022/03/29 13:28:04;;;;;;;11.68;7.55;;;;;;;;;;1716760;83;21517;-70
2022/03/29 13:30:33;;;;;;;10.05;6.12;;;;;;;;;;1716575;83;21081;-69
2022/03/29 13:33:00;;;;;;;11.33;7.10;;;;;;;;;;1716901;83;21049;-69
2022/03/29 13:35:27;;;;;;;13.18;9.33;;;;;;;;;;1716729;83;21545;-69
2022/03/29 13:37:54;;;;;;;12.00;6.75;;;;;;;;;;1716874;83;21510;-69
2022/03/29 13:40:22;;;;;;;10.40;7.10;;;;;;;;;;1716861;83;21045;-69
2022/03/29 13:42:49;;;;;;;10.80;7.33;;;;;;;;;;1716954;83;21244;-68
2022/03/29 13:45:18;;;;;;;9.40;6.53;;;;;;;;;;1716901;83;21036;-69
2022/03/29 13:47:47;;;;;;;10.03;6.15;;;;;;;;;;1716837;83;21068;-70
2022/03/29 13:50:15;;;;;;;9.10;6.78;;;;;;;;;;1716906;83;21521;-69
2022/03/29 13:52:44;;;;;;;8.48;5.85;;;;;;;;;;1716693;82;21644;-69
2022/03/29 13:55:19;;;;;;;9.65;6.60;;;;;;;;;;1761519;81;21554;-69
2022/03/29 13:57:47;;;;;;;10.35;7.25;;;;;;;;;;1733130;81;20973;-70
2022/03/29 14:00:15;;;;;;;10.35;6.78;;;;;;;;;;1761796;81;21011;-69
2022/03/29 14:02:42;;;;;;;11.10;7.05;;;;;;;;;;1761828;81;20976;-69
2022/03/29 14:05:10;;;;;;;13.03;7.70;;;;;;;;;;1761708;81;21516;-69
2022/03/29 14:07:37;;;;;;;11.88;6.58;;;;;;;;;;1761763;81;21507;-69
2022/03/29 14:10:05;;;;;;;11.10;6.97;;;;;;;;;;1761673;81;20980;-70
2022/03/29 14:12:34;;;;;;;13.13;8.20;;;;;;;;;;1761648;81;20996;-70
2022/03/29 14:15:05;;;;;;;11.85;6.97;;;;;;;;;;1761600;81;21037;-69
2022/03/29 14:17:34;;;;;;;11.55;7.65;;;;;;;;;;1761695;81;20987;-69
2022/03/29 14:20:04;;;;;;;12.60;7.42;;;;;;;;;;1761598;81;21083;-70
2022/03/29 14:22:32;;;;;;;11.83;8.55;;;;;;;;;;1761740;81;21547;-70
2022/03/29 14:25:00;;;;;;;12.90;8.60;;;;;;;;;;1761873;81;21008;-70
2022/03/29 14:27:27;;;;;;;11.53;6.90;;;;;;;;;;1761708;81;21052;-70
2022/03/29 14:29:55;;;;;;;14.95;8.03;;;;;;;;;;1761988;81;21550;-70
2022/03/29 14:32:22;;;;;;;12.55;9.10;;;;;;;;;;1761772;81;21472;-70
2022/03/29 14:34:51;;;;;;;13.05;8.13;;;;;;;;;;1761910;81;21039;-70
2022/03/29 14:37:20;;;;;;;11.45;7.10;;;;;;;;;;1723176;83;21059;-70
2022/03/29 14:39:49;;;;;;;11.43;7.03;;;;;;;;;;1693919;85;21107;-70
2022/03/29 14:42:16;;;;;;;12.37;8.75;;;;;;;;;;1694192;85;21540;-69
2022/03/29 14:44:43;;;;;;;11.83;7.33;;;;;;;;;;1694328;85;21079;-70
2022/03/29 14:47:10;;;;;;;11.20;7.40;;;;;;;;;;1694120;85;21641;-71
2022/03/29 14:49:39;;;;;;;12.70;8.58;;;;;;;;;;1694101;85;21012;-70
2022/03/29 14:52:06;;;;;;;10.10;5.85;;;;;;;;;;1693957;85;21568;-71
2022/03/29 14:54:36;;;;;;;12.95;8.05;;;;;;;;;;1694079;85;21545;-70
2022/03/29 14:57:03;;;;;;;11.75;8.60;;;;;;;;;;1694255;85;21058;-70
2022/03/29 14:59:32;;;;;;;11.88;7.45;;;;;;;;;;1694138;85;21069;-70
2022/03/29 15:01:59;;;;;;;10.95;6.60;;;;;;;;;;1694205;85;21482;-70
2022/03/29 15:04:27;;;;;;;11.90;7.83;;;;;;;;;;1694181;85;22063;-71